Time;durP1;ratioP1;P1;durP2;ratioP2;P2;SDS_P1;SDS_P2;PMS_P1;PMS_P2;Temp;Humidity;BMP_temperature;BMP_pressure;BME280_temperature;BME280_humidity;BME280_pressure;Samples;Min_cycle;Max_cycle;Signal;HPM_P1;HPM_P2
2021/07/19 00:02:09;;;;;;;19.30;7.15;;;18.80;99.90;;;;;;5091814;28;20032;-84
2021/07/19 00:04:46;;;;;;;19.33;6.75;;;18.80;99.90;;;;;;5093556;28;20035;-84
2021/07/19 00:07:13;;;;;;;13.32;6.43;;;18.80;99.90;;;;;;5094194;28;20032;-85
2021/07/19 00:09:44;;;;;;;16.23;6.72;;;18.90;99.90;;;;;;5093154;28;20373;-84
2021/07/19 00:12:17;;;;;;;14.85;6.43;;;18.70;99.90;;;;;;5081291;28;20040;-84
2021/07/19 00:14:45;;;;;;;15.77;6.40;;;18.70;99.90;;;;;;5088709;28;20058;-84
2021/07/19 00:17:12;;;;;;;15.02;6.20;;;18.70;99.90;;;;;;5095345;28;20055;-84
2021/07/19 00:19:38;;;;;;;18.75;6.40;;;18.70;99.90;;;;;;5085845;28;20038;-84
2021/07/19 00:22:05;;;;;;;13.38;7.18;;;18.60;99.90;;;;;;5093548;28;20115;-84
2021/07/19 00:24:31;;;;;;;15.50;6.68;;;18.60;99.90;;;;;;5095011;28;20511;-84
2021/07/19 00:26:57;;;;;;;13.95;6.18;;;18.60;99.90;;;;;;5094804;28;20064;-84
2021/07/19 00:29:23;;;;;;;16.20;6.60;;;18.40;99.90;;;;;;5092140;28;20036;-84
2021/07/19 00:31:54;;;;;;;12.80;6.78;;;18.60;99.90;;;;;;5085944;28;20039;-84
2021/07/19 00:34:45;;;;;;;14.90;6.13;;;18.60;99.90;;;;;;5072848;28;20472;-84
2021/07/19 00:37:10;;;;;;;12.35;6.53;;;18.50;99.90;;;;;;5087043;28;20514;-84
2021/07/19 00:39:36;;;;;;;13.63;5.68;;;18.50;99.90;;;;;;5092464;28;20032;-84
2021/07/19 00:42:05;;;;;;;13.80;5.95;;;18.50;99.90;;;;;;5094027;28;20051;-84
2021/07/19 00:44:39;;;;;;;12.55;6.85;;;18.50;99.90;;;;;;5093432;28;20032;-84
2021/07/19 00:47:15;;;;;;;14.07;6.72;;;18.40;99.90;;;;;;5073204;28;20040;-84
2021/07/19 00:49:50;;;;;;;13.38;6.10;;;18.40;99.90;;;;;;5054363;28;20059;-84
2021/07/19 00:52:26;;;;;;;14.05;6.25;;;18.40;99.90;;;;;;5081264;28;20036;-84
2021/07/19 00:54:53;;;;;;;14.40;6.03;;;18.40;99.90;;;;;;5092374;28;20032;-84
2021/07/19 00:57:26;;;;;;;12.57;5.68;;;18.40;99.90;;;;;;5093098;28;20565;-84
2021/07/19 00:59:57;;;;;;;14.48;5.40;;;18.40;99.90;;;;;;5076694;28;20118;-84
2021/07/19 01:02:28;;;;;;;13.70;5.30;;;18.60;99.90;;;;;;5088593;28;20090;-84
2021/07/19 01:04:59;;;;;;;14.35;5.95;;;18.40;99.90;;;;;;5091807;28;20381;-84
2021/07/19 01:07:27;;;;;;;14.15;5.88;;;18.30;99.90;;;;;;5073395;28;20036;-84
2021/07/19 01:10:18;;;;;;;14.30;6.10;;;18.40;99.90;;;;;;5061866;28;20396;-84
2021/07/19 01:12:46;;;;;;;11.85;4.97;;;18.30;99.90;;;;;;5087295;28;20041;-84
2021/07/19 01:15:12;;;;;;;14.88;5.60;;;18.30;99.90;;;;;;5092330;28;20036;-84
2021/07/19 01:17:41;;;;;;;14.20;5.47;;;18.30;99.90;;;;;;5076082;28;20052;-84
2021/07/19 01:20:07;;;;;;;13.13;5.18;;;18.30;99.90;;;;;;5077876;28;20048;-84
2021/07/19 01:22:58;;;;;;;13.63;6.50;;;18.30;99.90;;;;;;5087754;28;20052;-84
2021/07/19 01:25:56;;;;;;;13.82;5.68;;;18.30;99.90;;;;;;5090448;28;20032;-84
2021/07/19 01:28:28;;;;;;;16.35;6.35;;;18.40;99.90;;;;;;5087395;28;20085;-84
2021/07/19 01:30:59;;;;;;;18.15;5.60;;;18.40;99.90;;;;;;5064755;28;20089;-84
2021/07/19 01:33:28;;;;;;;12.45;5.20;;;18.30;99.90;;;;;;5093061;28;20032;-85
2021/07/19 01:35:59;;;;;;;13.65;5.78;;;18.30;99.90;;;;;;5074941;28;20036;-85
2021/07/19 01:38:30;;;;;;;12.15;5.38;;;18.30;99.90;;;;;;5091290;28;20153;-84
2021/07/19 01:41:00;;;;;;;12.35;5.55;;;18.40;99.90;;;;;;5092411;28;20510;-84
2021/07/19 01:43:27;;;;;;;12.80;4.70;;;18.20;99.90;;;;;;5088740;28;20087;-84
2021/07/19 01:45:54;;;;;;;11.77;5.03;;;18.30;99.90;;;;;;5077737;28;20032;-85
2021/07/19 01:48:21;;;;;;;10.07;4.90;;;18.20;99.90;;;;;;5088964;28;20037;-84
2021/07/19 01:50:49;;;;;;;16.55;5.35;;;18.20;99.90;;;;;;5079514;28;20056;-84
2021/07/19 01:53:16;;;;;;;12.32;5.95;;;18.20;99.90;;;;;;5090124;28;20063;-84
2021/07/19 01:55:44;;;;;;;15.43;5.32;;;18.10;99.90;;;;;;5089790;28;20119;-84
2021/07/19 01:58:12;;;;;;;14.20;5.25;;;18.20;99.90;;;;;;5054869;28;20090;-84
2021/07/19 02:00:38;;;;;;;15.00;5.80;;;18.20;99.90;;;;;;5055594;28;20166;-83
2021/07/19 02:03:04;;;;;;;12.13;5.45;;;18.20;99.90;;;;;;5074013;28;20040;-84
2021/07/19 02:05:30;;;;;;;14.50;5.90;;;18.20;99.90;;;;;;5091565;28;20074;-84
2021/07/19 02:08:01;;;;;;;10.95;5.38;;;18.20;99.90;;;;;;5092014;28;20055;-83
2021/07/19 02:10:28;;;;;;;12.93;5.05;;;18.20;99.90;;;;;;5092892;28;20092;-83
2021/07/19 02:12:56;;;;;;;14.55;5.13;;;18.20;99.90;;;;;;5086062;28;20040;-83
2021/07/19 02:15:23;;;;;;;9.95;5.03;;;18.30;99.90;;;;;;5076246;28;20040;-84
2021/07/19 02:17:56;;;;;;;14.70;5.53;;;18.20;99.90;;;;;;5067070;28;20036;-84
2021/07/19 02:20:26;;;;;;;14.38;5.57;;;18.30;99.90;;;;;;5088328;28;20084;-83
2021/07/19 02:22:53;;;;;;;10.65;5.47;;;18.20;99.90;;;;;;5084454;28;20039;-84
2021/07/19 02:25:19;;;;;;;19.40;6.47;;;18.20;99.90;;;;;;5080570;28;20032;-84
2021/07/19 02:27:48;;;;;;;12.30;5.53;;;18.20;99.90;;;;;;5058063;28;20037;-84
2021/07/19 02:30:17;;;;;;;13.90;5.13;;;18.20;99.90;;;;;;5085093;28;20051;-84
2021/07/19 02:32:47;;;;;;;14.23;5.72;;;18.20;99.90;;;;;;5080971;28;20031;-83
2021/07/19 02:35:15;;;;;;;14.40;6.57;;;18.10;99.90;;;;;;5090488;28;20036;-83
2021/07/19 02:37:46;;;;;;;16.52;6.05;;;18.10;99.90;;;;;;5092481;28;20081;-77
2021/07/19 02:40:16;;;;;;;16.63;6.20;;;18.10;99.90;;;;;;5091500;28;20054;-77
2021/07/19 02:42:44;;;;;;;16.15;5.85;;;18.10;99.90;;;;;;5091346;28;20039;-78
2021/07/19 02:45:14;;;;;;;15.48;5.95;;;18.10;99.90;;;;;;5070361;28;20040;-78
2021/07/19 02:47:44;;;;;;;12.75;5.50;;;18.10;99.90;;;;;;5088149;28;20077;-78
2021/07/19 02:50:13;;;;;;;14.95;6.75;;;18.10;99.90;;;;;;5073310;28;20402;-77
2021/07/19 02:52:39;;;;;;;18.83;6.45;;;18.10;99.90;;;;;;5070976;28;20036;-77
2021/07/19 02:55:07;;;;;;;14.18;5.72;;;18.10;99.90;;;;;;5092344;28;20044;-78
2021/07/19 02:57:40;;;;;;;18.08;6.65;;;18.00;99.90;;;;;;5091767;28;20060;-78
2021/07/19 03:00:11;;;;;;;16.77;6.80;;;17.90;99.90;;;;;;5085786;28;20038;-76
2021/07/19 03:02:43;;;;;;;15.95;5.90;;;18.10;99.90;;;;;;5092491;28;20056;-77
2021/07/19 03:05:11;;;;;;;15.50;6.18;;;18.10;99.90;;;;;;5088306;28;20040;-77
2021/07/19 03:07:38;;;;;;;13.27;5.95;;;18.10;99.90;;;;;;5083811;28;20040;-77
2021/07/19 03:10:08;;;;;;;14.90;6.57;;;18.00;99.90;;;;;;5074403;28;20040;-76
2021/07/19 03:12:37;;;;;;;13.52;6.07;;;18.00;99.90;;;;;;5092327;28;20059;-77
2021/07/19 03:15:07;;;;;;;16.77;6.25;;;18.00;99.90;;;;;;5092108;28;20054;-77
2021/07/19 03:17:38;;;;;;;12.73;5.70;;;18.00;99.90;;;;;;5065485;28;20142;-78
2021/07/19 03:20:08;;;;;;;12.30;6.13;;;18.00;99.90;;;;;;5091959;28;20032;-78
2021/07/19 03:22:39;;;;;;;12.80;6.55;;;17.90;99.90;;;;;;5088131;28;20472;-83
2021/07/19 03:25:10;;;;;;;16.70;6.63;;;17.90;99.90;;;;;;5087264;28;20484;-83
2021/07/19 03:27:42;;;;;;;13.95;6.47;;;17.90;99.90;;;;;;5092346;28;20059;-83
2021/07/19 03:30:09;;;;;;;14.23;6.70;;;17.90;99.90;;;;;;5090815;28;20052;-85
2021/07/19 03:32:35;;;;;;;13.70;6.50;;;17.90;99.90;;;;;;5090383;28;20458;-85
2021/07/19 03:35:04;;;;;;;18.70;7.47;;;17.90;99.90;;;;;;5084174;28;20036;-85
2021/07/19 03:37:30;;;;;;;13.85;7.00;;;17.90;99.90;;;;;;5087394;28;20070;-84
2021/07/19 03:39:59;;;;;;;12.50;7.18;;;17.90;99.90;;;;;;5087875;28;20055;-84
2021/07/19 03:42:29;;;;;;;16.88;7.78;;;17.90;99.90;;;;;;5092110;28;20040;-83
2021/07/19 03:44:56;;;;;;;17.27;7.53;;;17.90;99.90;;;;;;5090909;28;20111;-84
2021/07/19 03:47:22;;;;;;;16.42;6.82;;;17.90;99.90;;;;;;5092210;28;20439;-84
2021/07/19 03:49:49;;;;;;;16.08;7.70;;;17.90;99.90;;;;;;5074501;28;20487;-84
2021/07/19 03:52:16;;;;;;;18.73;7.10;;;17.90;99.90;;;;;;5094460;28;20032;-84
2021/07/19 03:54:41;;;;;;;13.88;7.30;;;17.90;99.90;;;;;;5085370;28;20066;-84
2021/07/19 03:57:09;;;;;;;17.25;7.20;;;17.90;99.90;;;;;;5095390;28;20076;-84
2021/07/19 03:59:39;;;;;;;16.10;7.28;;;17.90;99.90;;;;;;5066878;28;20041;-84
2021/07/19 04:02:11;;;;;;;17.73;7.78;;;17.90;99.90;;;;;;5077663;28;20040;-84
2021/07/19 04:04:41;;;;;;;15.32;7.28;;;17.90;99.90;;;;;;5095285;28;20036;-84
2021/07/19 04:07:14;;;;;;;20.55;7.03;;;17.90;99.90;;;;;;5095390;28;20484;-84
2021/07/19 04:09:40;;;;;;;17.73;7.10;;;17.90;99.90;;;;;;5082483;28;20036;-84
2021/07/19 04:12:11;;;;;;;16.13;6.93;;;17.90;99.90;;;;;;5092572;28;20032;-84
2021/07/19 04:14:38;;;;;;;13.13;5.65;;;17.90;99.90;;;;;;5093797;28;20126;-84
2021/07/19 04:17:08;;;;;;;15.50;6.80;;;17.90;99.90;;;;;;5093927;28;20028;-84
2021/07/19 04:19:35;;;;;;;17.83;6.38;;;17.90;99.90;;;;;;5094209;28;20407;-83
2021/07/19 04:22:01;;;;;;;17.27;6.22;;;17.90;99.90;;;;;;5073374;28;20028;-83
2021/07/19 04:24:27;;;;;;;14.55;6.10;;;17.80;99.90;;;;;;5085365;28;20036;-83
2021/07/19 04:26:54;;;;;;;18.55;6.60;;;17.80;99.90;;;;;;5090567;28;20039;-84
2021/07/19 04:29:24;;;;;;;13.50;5.88;;;17.90;99.90;;;;;;5057356;28;20350;-83
2021/07/19 04:31:57;;;;;;;17.70;5.65;;;17.90;99.90;;;;;;5088419;28;20056;-84
2021/07/19 04:34:31;;;;;;;14.07;5.90;;;17.90;99.90;;;;;;5095272;28;20119;-84
2021/07/19 04:37:05;;;;;;;18.13;5.55;;;17.80;99.90;;;;;;5093756;28;20032;-84
2021/07/19 04:39:31;;;;;;;17.70;5.45;;;17.80;99.90;;;;;;5094093;28;20036;-84
2021/07/19 04:42:00;;;;;;;16.20;4.72;;;17.80;99.90;;;;;;5094799;28;20040;-77
2021/07/19 04:44:27;;;;;;;14.70;5.43;;;17.80;99.90;;;;;;5074207;28;20044;-77
2021/07/19 04:46:54;;;;;;;15.75;5.40;;;17.80;99.90;;;;;;5074811;28;20044;-77
2021/07/19 04:49:20;;;;;;;13.23;5.30;;;17.80;99.90;;;;;;5079367;28;20484;-77
2021/07/19 04:51:47;;;;;;;12.90;5.20;;;17.80;99.90;;;;;;5060032;28;20218;-78
2021/07/19 04:54:29;;;;;;;12.63;4.50;;;17.80;99.90;;;;;;5069588;28;20074;-78
2021/07/19 04:56:59;;;;;;;12.98;4.82;;;17.80;99.90;;;;;;5093786;28;20114;-79
2021/07/19 04:59:29;;;;;;;15.73;4.90;;;17.80;99.90;;;;;;5094421;28;20051;-78
2021/07/19 05:01:57;;;;;;;12.77;5.35;;;17.90;99.90;;;;;;5088739;28;20040;-79
2021/07/19 05:04:25;;;;;;;11.48;5.05;;;17.80;99.90;;;;;;5076290;28;20032;-79
2021/07/19 05:06:56;;;;;;;15.70;4.55;;;17.70;99.90;;;;;;5093974;28;20032;-78
2021/07/19 05:09:24;;;;;;;14.57;4.63;;;17.80;99.90;;;;;;5093030;28;20036;-78
2021/07/19 05:11:51;;;;;;;13.73;4.75;;;17.80;99.90;;;;;;5075783;28;20040;-84
2021/07/19 05:14:18;;;;;;;13.40;4.35;;;17.70;99.90;;;;;;5093905;28;20403;-85
2021/07/19 05:16:45;;;;;;;12.40;4.88;;;17.70;99.90;;;;;;5088956;28;20029;-84
2021/07/19 05:19:12;;;;;;;11.25;4.35;;;17.70;99.90;;;;;;5092271;28;20085;-84
2021/07/19 05:21:41;;;;;;;10.98;4.40;;;17.80;99.90;;;;;;5092776;28;20118;-77
2021/07/19 05:24:08;;;;;;;12.55;4.50;;;17.80;99.90;;;;;;5076057;28;20052;-77
2021/07/19 05:26:37;;;;;;;10.80;4.82;;;17.80;99.90;;;;;;5092661;28;20032;-77
2021/07/19 05:29:05;;;;;;;13.45;4.28;;;17.80;99.90;;;;;;5067449;28;20083;-77
2021/07/19 05:31:31;;;;;;;13.15;5.18;;;17.80;99.90;;;;;;5091709;28;20111;-78
2021/07/19 05:34:02;;;;;;;11.15;4.20;;;17.80;99.90;;;;;;5074108;28;20075;-78
2021/07/19 05:36:28;;;;;;;13.35;4.70;;;17.80;99.90;;;;;;5080288;28;20048;-78
2021/07/19 05:38:54;;;;;;;13.65;4.95;;;17.80;99.90;;;;;;5084839;28;20063;-79
2021/07/19 05:41:19;;;;;;;13.05;4.28;;;17.80;99.90;;;;;;5092362;28;20400;-78
2021/07/19 05:43:48;;;;;;;14.63;5.32;;;17.80;99.90;;;;;;5056150;28;20036;-78
2021/07/19 05:46:14;;;;;;;14.63;3.92;;;17.80;99.90;;;;;;5093397;28;20086;-78
2021/07/19 05:48:40;;;;;;;12.65;4.90;;;17.80;99.90;;;;;;5083913;28;20037;-79
2021/07/19 05:51:09;;;;;;;8.65;4.00;;;17.80;99.90;;;;;;5088448;28;20443;-79
2021/07/19 05:53:35;;;;;;;8.73;4.25;;;17.90;99.90;;;;;;5092184;28;20400;-77
2021/07/19 05:56:05;;;;;;;14.45;6.70;;;17.90;99.90;;;;;;5095632;28;20476;-77
2021/07/19 05:58:31;;;;;;;13.48;3.85;;;17.90;99.90;;;;;;5093168;28;20051;-78
2021/07/19 06:00:57;;;;;;;10.02;4.50;;;17.90;99.90;;;;;;5072381;28;20056;-85
2021/07/19 06:03:23;;;;;;;13.45;4.28;;;17.90;99.90;;;;;;5091406;28;20040;-83
2021/07/19 06:05:50;;;;;;;18.88;4.35;;;17.90;99.90;;;;;;5092697;28;20382;-84
2021/07/19 06:08:17;;;;;;;17.05;4.25;;;17.90;99.90;;;;;;5070579;28;20040;-85
2021/07/19 06:10:43;;;;;;;12.07;4.53;;;17.90;99.90;;;;;;5092183;28;20047;-84
2021/07/19 06:13:10;;;;;;;13.32;4.18;;;17.90;99.90;;;;;;5090832;28;20487;-78
2021/07/19 06:15:36;;;;;;;10.77;3.95;;;17.90;99.90;;;;;;5091984;28;20599;-77
2021/07/19 06:18:03;;;;;;;12.40;4.32;;;17.90;99.90;;;;;;5091848;28;20036;-77
2021/07/19 06:20:29;;;;;;;13.35;3.70;;;17.90;99.90;;;;;;5080800;28;20044;-77
2021/07/19 06:23:00;;;;;;;9.45;3.90;;;17.90;99.90;;;;;;5085969;28;20037;-78
2021/07/19 06:25:36;;;;;;;15.60;4.53;;;17.90;99.90;;;;;;5092905;28;20032;-85
2021/07/19 06:28:06;;;;;;;12.75;4.20;;;17.90;99.90;;;;;;5094330;28;20039;-85
2021/07/19 06:30:32;;;;;;;12.95;4.32;;;17.90;99.90;;;;;;5080633;28;20032;-79
2021/07/19 06:32:58;;;;;;;13.95;4.63;;;17.90;99.90;;;;;;5086218;28;20043;-78
2021/07/19 06:35:27;;;;;;;15.90;4.63;;;17.90;99.90;;;;;;5074049;28;20032;-79
2021/07/19 06:37:56;;;;;;;16.23;4.60;;;17.90;99.90;;;;;;5092983;28;20039;-78
2021/07/19 06:40:26;;;;;;;14.75;4.57;;;18.00;99.90;;;;;;5085121;28;20422;-77
2021/07/19 06:42:52;;;;;;;16.40;4.90;;;18.00;99.90;;;;;;5088412;28;20040;-77
2021/07/19 06:45:18;;;;;;;12.55;4.50;;;18.00;99.90;;;;;;5073314;28;20028;-84
2021/07/19 06:47:44;;;;;;;13.90;4.07;;;18.00;99.90;;;;;;5071139;28;20094;-84
2021/07/19 06:50:16;;;;;;;13.63;4.70;;;18.10;99.90;;;;;;5081028;28;20036;-83
2021/07/19 06:53:26;;;;;;;11.35;4.60;;;18.00;99.90;;;;;;5069624;28;20039;-85
2021/07/19 06:55:52;;;;;;;13.10;4.40;;;18.00;99.90;;;;;;5089331;28;20051;-78
2021/07/19 06:58:21;;;;;;;13.13;4.07;;;18.00;99.90;;;;;;5088355;28;20048;-79
2021/07/19 07:00:47;;;;;;;11.02;4.15;;;18.00;99.90;;;;;;5084137;28;20535;-76
2021/07/19 07:03:13;;;;;;;11.55;4.15;;;18.00;99.90;;;;;;5085269;28;20035;-82
2021/07/19 07:05:49;;;;;;;11.98;4.45;;;18.10;99.90;;;;;;5086328;28;20040;-82
2021/07/19 07:08:21;;;;;;;19.25;4.70;;;18.00;99.90;;;;;;5073292;28;20480;-83
2021/07/19 07:14:27;;;;;;;14.93;4.40;;;18.00;99.90;;;;;;5083491;28;20039;-82
2021/07/19 07:16:57;;;;;;;13.02;4.55;;;18.00;99.90;;;;;;5083036;28;20285;-82
2021/07/19 07:20:01;;;;;;;12.50;4.10;;;18.10;99.90;;;;;;5073463;28;20039;-81
2021/07/19 07:22:32;;;;;;;15.90;4.50;;;18.10;99.90;;;;;;5061400;28;20056;-82
2021/07/19 07:24:58;;;;;;;10.25;3.92;;;18.20;99.90;;;;;;5076599;28;20066;-87
2021/07/19 07:27:26;;;;;;;12.95;4.55;;;18.30;99.90;;;;;;5095359;28;20036;-85
2021/07/19 07:29:52;;;;;;;10.13;4.32;;;18.20;99.90;;;;;;5093803;28;20532;-85
2021/07/19 07:32:28;;;;;;;10.98;4.10;;;18.20;99.90;;;;;;5095991;28;20032;-85
2021/07/19 07:34:57;;;;;;;12.90;4.25;;;18.10;99.90;;;;;;5095595;28;20426;-83
2021/07/19 07:37:25;;;;;;;12.90;3.78;;;18.40;99.90;;;;;;5075652;28;20484;-82
2021/07/19 07:39:51;;;;;;;11.50;4.00;;;18.50;99.90;;;;;;5087925;28;20031;-83
2021/07/19 07:42:23;;;;;;;14.00;3.92;;;18.50;99.90;;;;;;5090316;28;20104;-84
2021/07/19 07:44:49;;;;;;;10.32;3.80;;;18.40;99.90;;;;;;5085112;28;20435;-84
2021/07/19 07:47:16;;;;;;;9.43;3.63;;;18.30;99.90;;;;;;5085535;28;20031;-84
2021/07/19 07:49:42;;;;;;;10.48;3.63;;;18.30;99.90;;;;;;5063389;28;20036;-86
2021/07/19 07:52:09;;;;;;;11.00;3.13;;;18.30;99.90;;;;;;5093842;28;20038;-84
2021/07/19 07:54:38;;;;;;;9.10;3.97;;;18.30;99.90;;;;;;5064540;28;20044;-84
2021/07/19 07:57:04;;;;;;;8.30;3.90;;;18.30;99.90;;;;;;5088669;28;20033;-84
2021/07/19 07:59:30;;;;;;;11.63;3.70;;;18.50;99.90;;;;;;5076450;28;20039;-84
2021/07/19 08:01:58;;;;;;;15.57;3.60;;;18.50;99.90;;;;;;5095932;28;20028;-84
2021/07/19 08:05:33;;;;;;;;;;;;;;;;;;;;;
2021/07/19 08:08:01;;;;;;;12.40;3.40;;;18.60;99.90;;;;;;5089380;28;20050;-85
2021/07/19 08:10:37;;;;;;;6.32;3.42;;;18.60;99.90;;;;;;5091792;28;20052;-83
2021/07/19 08:13:04;;;;;;;12.00;4.03;;;18.60;99.90;;;;;;5110080;28;20468;-81
2021/07/19 08:15:34;;;;;;;11.25;3.35;;;18.60;99.90;;;;;;5091030;28;20110;-83
2021/07/19 08:17:59;;;;;;;10.77;3.30;;;18.60;99.90;;;;;;5075719;28;20092;-79
2021/07/19 08:20:29;;;;;;;13.32;3.58;;;18.60;99.90;;;;;;5085435;28;20036;-82
2021/07/19 08:22:55;;;;;;;11.25;4.00;;;18.50;99.90;;;;;;5107572;28;20089;-82
2021/07/19 08:25:20;;;;;;;10.15;3.80;;;18.60;99.90;;;;;;5098123;28;20396;-82
2021/07/19 08:27:55;;;;;;;10.07;3.65;;;18.60;99.90;;;;;;5096663;28;20047;-84
2021/07/19 08:30:24;;;;;;;6.95;3.40;;;18.60;99.90;;;;;;5089293;28;20044;-84
2021/07/19 08:32:51;;;;;;;7.85;3.17;;;18.50;99.90;;;;;;5110062;28;20084;-82
2021/07/19 08:35:17;;;;;;;11.50;3.65;;;18.50;99.90;;;;;;5099674;28;20036;-81
2021/07/19 08:37:46;;;;;;;7.60;2.90;;;18.50;99.90;;;;;;5095715;28;20130;-83
2021/07/19 08:40:20;;;;;;;9.18;3.17;;;18.50;99.90;;;;;;5088880;28;20032;-82
2021/07/19 08:42:47;;;;;;;9.27;3.53;;;18.50;99.90;;;;;;5098748;28;20046;-82
2021/07/19 08:45:13;;;;;;;9.13;3.55;;;18.60;99.90;;;;;;5104351;28;20032;-81
2021/07/19 08:47:41;;;;;;;9.65;3.08;;;18.70;99.90;;;;;;5094740;28;20055;-81
2021/07/19 08:50:09;;;;;;;7.60;3.45;;;18.70;99.90;;;;;;5095259;28;20480;-78
2021/07/19 08:52:35;;;;;;;9.73;3.33;;;18.90;99.90;;;;;;5092624;28;20404;-79
2021/07/19 08:55:04;;;;;;;6.97;3.10;;;19.00;99.90;;;;;;5090175;28;20097;-82
2021/07/19 08:57:30;;;;;;;7.80;3.30;;;19.00;99.90;;;;;;5078509;28;20048;-81
2021/07/19 09:00:00;;;;;;;9.60;3.40;;;19.00;99.90;;;;;;5085381;28;20060;-81
2021/07/19 09:02:28;;;;;;;10.27;4.15;;;18.90;99.90;;;;;;5086057;28;20032;-84
2021/07/19 09:04:54;;;;;;;10.27;3.33;;;18.90;99.90;;;;;;5079722;28;20036;-79
2021/07/19 09:07:20;;;;;;;8.23;3.45;;;18.90;99.90;;;;;;5094784;28;20057;-80
2021/07/19 09:09:50;;;;;;;8.07;3.17;;;18.90;99.90;;;;;;5076167;28;20060;-77
2021/07/19 09:12:17;;;;;;;8.90;3.25;;;18.90;99.90;;;;;;5093007;28;20423;-82
2021/07/19 09:14:47;;;;;;;11.00;3.42;;;19.00;99.90;;;;;;5094436;28;20036;-82
2021/07/19 09:17:22;;;;;;;8.45;3.38;;;18.90;99.90;;;;;;5092929;28;20528;-82
2021/07/19 09:19:48;;;;;;;12.07;3.53;;;18.90;99.90;;;;;;5092816;28;20040;-82
2021/07/19 09:22:26;;;;;;;8.55;3.10;;;19.00;99.90;;;;;;5085213;28;20078;-82
2021/07/19 09:24:52;;;;;;;9.50;3.05;;;19.00;99.90;;;;;;5085960;28;20036;-81
2021/07/19 09:27:20;;;;;;;6.20;2.60;;;19.00;99.90;;;;;;5093694;28;20032;-82
2021/07/19 09:29:47;;;;;;;14.98;3.10;;;19.00;99.90;;;;;;5092687;28;20056;-82
2021/07/19 09:32:13;;;;;;;9.48;3.28;;;19.00;99.90;;;;;;5075480;28;20051;-82
2021/07/19 09:34:41;;;;;;;9.80;3.20;;;19.20;99.90;;;;;;5093030;28;20036;-86
2021/07/19 09:37:10;;;;;;;11.88;2.72;;;19.20;99.90;;;;;;5050824;28;20079;-83
2021/07/19 09:39:53;;;;;;;9.68;3.10;;;19.10;99.90;;;;;;5085768;28;20043;-81
2021/07/19 09:42:22;;;;;;;11.93;3.15;;;19.00;99.90;;;;;;5074872;28;20552;-83
2021/07/19 09:44:56;;;;;;;10.10;3.25;;;19.20;99.90;;;;;;5092016;28;20044;-81
2021/07/19 09:47:41;;;;;;;11.13;3.05;;;19.20;99.90;;;;;;5090060;28;20040;-79
2021/07/19 09:50:18;;;;;;;12.77;3.35;;;19.20;99.90;;;;;;5059499;28;20052;-83
2021/07/19 09:52:45;;;;;;;9.23;3.88;;;19.20;99.90;;;;;;5061219;28;20036;-80
2021/07/19 09:55:38;;;;;;;8.60;3.20;;;19.20;99.90;;;;;;5081620;28;20395;-81
2021/07/19 09:58:22;;;;;;;10.13;4.07;;;19.20;99.90;;;;;;5091177;28;20080;-80
2021/07/19 10:00:49;;;;;;;11.05;4.35;;;19.20;99.90;;;;;;5086617;28;20111;-81
2021/07/19 10:03:15;;;;;;;9.00;3.60;;;19.20;99.90;;;;;;5072384;28;20555;-79
2021/07/19 10:05:41;;;;;;;9.57;3.92;;;19.20;99.90;;;;;;5089742;28;20043;-80
2021/07/19 10:08:20;;;;;;;10.00;3.63;;;19.20;99.90;;;;;;5071547;28;20052;-78
2021/07/19 10:10:46;;;;;;;10.13;4.22;;;19.20;99.90;;;;;;5081705;28;20028;-85
2021/07/19 10:13:16;;;;;;;12.68;4.65;;;19.20;99.90;;;;;;5057180;28;20093;-85
2021/07/19 10:15:43;;;;;;;9.27;4.50;;;19.20;99.90;;;;;;5091756;28;20036;-85
2021/07/19 10:18:11;;;;;;;8.85;4.55;;;19.20;99.90;;;;;;5091886;28;20031;-85
2021/07/19 10:20:38;;;;;;;11.60;4.60;;;19.20;99.90;;;;;;5091862;28;20494;-84
2021/07/19 10:23:05;;;;;;;10.27;5.00;;;19.30;99.90;;;;;;5092972;28;20064;-85
2021/07/19 10:25:34;;;;;;;10.05;5.03;;;19.20;99.90;;;;;;5091593;28;20085;-85
2021/07/19 10:28:01;;;;;;;9.55;4.60;;;19.20;99.90;;;;;;5093090;28;20089;-85
2021/07/19 10:30:27;;;;;;;9.00;4.63;;;19.20;99.90;;;;;;5074621;28;20434;-85
2021/07/19 10:32:53;;;;;;;9.20;4.93;;;19.30;99.90;;;;;;5091362;28;20466;-86
2021/07/19 10:35:20;;;;;;;11.02;4.40;;;19.40;99.90;;;;;;5091264;28;20399;-85
2021/07/19 10:37:58;;;;;;;13.23;5.13;;;19.40;99.90;;;;;;5091572;28;20444;-86
2021/07/19 10:40:27;;;;;;;10.20;5.65;;;19.40;99.90;;;;;;5091473;28;20036;-85
2021/07/19 10:43:10;;;;;;;10.27;5.20;;;19.50;99.90;;;;;;5091757;28;20119;-85
2021/07/19 10:45:41;;;;;;;11.60;5.50;;;19.40;99.90;;;;;;5091299;28;20044;-85
2021/07/19 10:48:20;;;;;;;11.80;5.15;;;19.30;99.90;;;;;;5088058;28;20036;-85
2021/07/19 10:50:46;;;;;;;12.20;5.18;;;19.40;99.90;;;;;;5084412;28;20035;-85
2021/07/19 10:53:17;;;;;;;10.43;6.05;;;19.40;99.90;;;;;;5091294;28;20044;-84
2021/07/19 10:55:44;;;;;;;11.63;7.00;;;19.50;99.90;;;;;;5092845;28;20043;-85
2021/07/19 10:58:16;;;;;;;13.90;7.10;;;19.40;99.90;;;;;;5074489;28;20439;-85
2021/07/19 11:00:45;;;;;;;11.88;7.13;;;19.40;99.90;;;;;;5095828;28;20506;-84
2021/07/19 11:03:15;;;;;;;11.65;7.45;;;19.50;99.90;;;;;;5096453;28;20187;-86
2021/07/19 11:05:47;;;;;;;13.35;8.18;;;19.40;99.90;;;;;;5096751;28;20040;-86
2021/07/19 11:08:26;;;;;;;12.77;7.90;;;19.40;99.90;;;;;;5096575;28;20043;-85
2021/07/19 11:10:57;;;;;;;14.30;8.55;;;19.50;99.90;;;;;;5095877;28;20036;-85
2021/07/19 11:13:33;;;;;;;11.55;8.48;;;19.60;99.90;;;;;;5096729;28;20051;-85
2021/07/19 11:16:01;;;;;;;11.73;8.02;;;20.10;99.90;;;;;;5078226;28;20127;-76
2021/07/19 11:18:32;;;;;;;10.80;8.07;;;19.60;99.90;;;;;;5094921;28;20051;-76
2021/07/19 11:21:00;;;;;;;12.95;7.93;;;19.70;99.90;;;;;;5096183;28;20040;-76
2021/07/19 11:23:35;;;;;;;10.95;8.23;;;19.80;99.90;;;;;;5094681;28;20048;-77
2021/07/19 11:26:17;;;;;;;15.77;8.68;;;19.80;99.90;;;;;;5096079;28;20059;-76
2021/07/19 11:28:45;;;;;;;18.10;9.30;;;19.90;99.90;;;;;;5094673;28;20118;-76
2021/07/19 11:31:32;;;;;;;13.90;9.05;;;19.90;99.90;;;;;;5074486;28;20036;-76
2021/07/19 11:34:05;;;;;;;14.23;9.50;;;20.00;99.90;;;;;;5093525;28;20028;-76
2021/07/19 11:36:46;;;;;;;14.65;9.23;;;19.80;99.90;;;;;;5078010;28;20396;-76
2021/07/19 11:39:20;;;;;;;17.85;8.93;;;19.70;99.90;;;;;;5095909;28;20044;-85
2021/07/19 11:41:58;;;;;;;12.18;8.90;;;19.60;99.90;;;;;;5058292;28;20048;-85
2021/07/19 11:44:24;;;;;;;15.38;9.38;;;19.70;99.90;;;;;;5081917;28;20172;-85
2021/07/19 11:46:50;;;;;;;13.23;9.75;;;19.60;99.90;;;;;;5095688;28;20064;-85
2021/07/19 11:49:23;;;;;;;17.08;9.15;;;19.60;99.90;;;;;;5081281;28;20056;-84
2021/07/19 11:51:48;;;;;;;17.83;9.98;;;19.70;99.90;;;;;;5095719;28;20028;-85
2021/07/19 11:54:18;;;;;;;13.52;10.23;;;19.70;99.90;;;;;;5094540;28;20072;-85
2021/07/19 11:56:49;;;;;;;17.13;10.10;;;19.60;99.90;;;;;;5095479;28;20071;-85
2021/07/19 11:59:25;;;;;;;16.02;10.32;;;19.60;99.90;;;;;;5094272;28;20044;-85
2021/07/19 12:01:56;;;;;;;16.50;9.25;;;19.70;99.90;;;;;;5095458;28;20040;-86
2021/07/19 12:04:23;;;;;;;16.60;9.18;;;19.70;99.90;;;;;;5094239;28;20548;-85
2021/07/19 12:06:52;;;;;;;14.32;10.27;;;19.70;99.90;;;;;;5095209;28;20064;-85
2021/07/19 12:09:19;;;;;;;14.73;9.73;;;19.80;99.90;;;;;;5095294;28;20036;-85
2021/07/19 12:11:52;;;;;;;17.95;10.20;;;19.80;99.90;;;;;;5093917;28;20044;-85
2021/07/19 12:14:22;;;;;;;17.05;10.57;;;19.90;99.90;;;;;;5093987;28;20081;-85
2021/07/19 12:16:48;;;;;;;17.30;9.93;;;20.00;99.90;;;;;;5077029;28;20476;-85
2021/07/19 12:19:17;;;;;;;15.43;9.95;;;20.10;99.90;;;;;;5073840;28;20090;-85
2021/07/19 12:21:46;;;;;;;16.70;10.65;;;20.20;99.90;;;;;;5089396;28;20459;-85
2021/07/19 12:24:14;;;;;;;19.80;11.25;;;20.20;99.90;;;;;;5095297;28;20047;-85
2021/07/19 12:26:48;;;;;;;19.38;12.38;;;20.20;99.90;;;;;;5093913;28;20472;-86
2021/07/19 12:29:18;;;;;;;15.88;10.88;;;20.30;99.90;;;;;;5082176;28;20036;-86
2021/07/19 12:31:43;;;;;;;15.70;10.60;;;20.30;99.90;;;;;;5093828;28;20093;-85
2021/07/19 12:34:21;;;;;;;18.17;11.23;;;20.20;99.90;;;;;;5076651;28;20106;-85
2021/07/19 12:36:51;;;;;;;16.27;12.25;;;20.20;99.90;;;;;;5093717;28;20039;-85
2021/07/19 12:39:21;;;;;;;17.83;12.18;;;20.10;99.90;;;;;;5094830;28;20043;-77
2021/07/19 12:41:49;;;;;;;15.98;11.27;;;20.00;99.90;;;;;;5094628;28;20036;-76
2021/07/19 12:44:15;;;;;;;15.13;11.25;;;19.90;99.90;;;;;;5093323;28;20113;-77
2021/07/19 12:46:46;;;;;;;21.00;11.27;;;19.90;99.90;;;;;;5073233;28;20517;-77
2021/07/19 12:49:12;;;;;;;16.85;11.15;;;19.90;99.90;;;;;;5073165;28;20036;-77
2021/07/19 12:51:40;;;;;;;16.95;11.23;;;19.90;99.90;;;;;;5089680;28;20537;-77
2021/07/19 12:54:09;;;;;;;17.33;11.55;;;19.90;99.90;;;;;;5064905;28;20037;-78
2021/07/19 12:56:39;;;;;;;17.67;11.20;;;20.00;99.90;;;;;;5091534;28;20629;-78